createdAt,value
2023-03-06T00:01:30.011Z,73.62
2023-03-06T00:04:32.706Z,73.87
2023-03-06T00:07:35.175Z,73.33
2023-03-06T00:10:38.206Z,73.50
2023-03-06T00:13:40.652Z,74.85
2023-03-06T00:16:43.281Z,74.54
2023-03-06T00:19:45.952Z,75.30
2023-03-06T00:22:49.434Z,75.44
2023-03-06T00:25:51.774Z,75.32
2023-03-06T00:28:54.474Z,75.27
2023-03-06T00:31:56.770Z,75.47
2023-03-06T00:34:59.314Z,74.65
2023-03-06T00:38:01.914Z,74.72
2023-03-06T00:41:11.756Z,75.00
2023-03-06T00:44:14.061Z,75.10
2023-03-06T00:47:19.549Z,74.76
2023-03-06T00:50:21.827Z,75.46
2023-03-06T00:53:25.377Z,74.04
2023-03-06T00:56:27.681Z,72.83
2023-03-06T00:59:30.406Z,73.03
2023-03-06T01:02:32.831Z,72.84
2023-03-06T01:05:38.713Z,72.68
2023-03-06T01:08:42.137Z,72.37
2023-03-06T01:11:44.869Z,72.58
2023-03-06T01:14:47.199Z,73.01
2023-03-06T01:17:52.668Z,73.09
2023-03-06T01:20:54.909Z,73.33
2023-03-06T01:23:57.561Z,73.65
2023-03-06T01:26:59.919Z,73.20
2023-03-06T01:30:02.919Z,73.54
2023-03-06T01:33:05.325Z,73.30
2023-03-06T01:36:09.103Z,72.50
2023-03-06T01:39:11.652Z,71.70
2023-03-06T01:42:14.752Z,71.85
2023-03-06T01:45:18.376Z,71.65
2023-03-06T01:48:22.294Z,71.89
2023-03-06T01:51:27.520Z,72.43
2023-03-06T01:54:35.783Z,72.63
2023-03-06T01:57:40.956Z,72.72
2023-03-06T02:00:44.213Z,72.79
2023-03-06T02:03:49.690Z,72.92
2023-03-06T02:06:52.397Z,73.23
2023-03-06T02:09:55.036Z,72.36
2023-03-06T02:12:58.726Z,71.08
2023-03-06T02:16:01.585Z,70.46
2023-03-06T02:19:04.917Z,70.05
2023-03-06T02:22:07.342Z,70.15
2023-03-06T02:25:15.832Z,70.23
2023-03-06T02:28:21.183Z,70.65
2023-03-06T02:31:25.942Z,71.31
2023-03-06T02:34:28.217Z,71.09
2023-03-06T02:37:30.838Z,71.25
2023-03-06T02:40:34.155Z,71.16
2023-03-06T02:43:38.835Z,71.21
2023-03-06T02:46:41.202Z,70.27
2023-03-06T02:49:43.955Z,69.98
2023-03-06T02:52:47.107Z,70.10
2023-03-06T02:55:50.128Z,69.87
2023-03-06T02:58:52.505Z,70.19
2023-03-06T03:01:55.642Z,70.54
2023-03-06T03:04:58.920Z,69.97
2023-03-06T03:08:01.966Z,69.61
2023-03-06T03:11:04.608Z,69.50
2023-03-06T03:14:07.468Z,70.47
2023-03-06T03:17:09.882Z,70.51
2023-03-06T03:20:13.947Z,69.94
2023-03-06T03:23:16.506Z,70.07
2023-03-06T03:26:20.540Z,70.00
2023-03-06T03:29:23.686Z,70.33
2023-03-06T03:32:26.994Z,70.84
2023-03-06T03:35:29.846Z,70.76
2023-03-06T03:38:33.735Z,71.06
2023-03-06T03:41:36.262Z,70.70
2023-03-06T03:44:39.668Z,70.95
2023-03-06T03:47:42.310Z,71.14
2023-03-06T03:50:45.444Z,71.49
2023-03-06T03:53:49.313Z,70.92
2023-03-06T03:56:53.328Z,70.98
2023-03-06T03:59:56.769Z,71.51
2023-03-06T04:02:59.838Z,70.55
2023-03-06T04:06:02.936Z,70.88
2023-03-06T04:09:06.109Z,71.00
2023-03-06T04:12:10.006Z,70.78
2023-03-06T04:15:12.509Z,71.25
2023-03-06T04:18:16.633Z,71.40
2023-03-06T04:21:19.370Z,71.33
2023-03-06T04:24:22.711Z,70.83
2023-03-06T04:27:25.147Z,70.70
2023-03-06T04:30:28.260Z,71.14
2023-03-06T04:33:31.307Z,71.76
2023-03-06T04:36:35.058Z,72.84
2023-03-06T04:39:37.763Z,71.26
2023-03-06T04:42:40.352Z,71.80
2023-03-06T04:45:42.724Z,72.60
2023-03-06T04:48:45.585Z,73.43
2023-03-06T04:51:47.984Z,73.79
2023-03-06T04:54:50.654Z,75.00
2023-03-06T04:57:53.168Z,75.08
2023-03-06T05:00:55.875Z,76.70
2023-03-06T05:03:58.165Z,77.63
2023-03-06T05:07:00.748Z,78.48
2023-03-06T05:10:03.402Z,78.99
2023-03-06T05:13:06.104Z,80.00
2023-03-06T05:16:11.100Z,80.31
2023-03-06T05:19:14.136Z,80.37
2023-03-06T05:22:16.634Z,81.55
2023-03-06T05:25:20.071Z,82.74
2023-03-06T05:28:22.525Z,81.35
2023-03-06T05:31:25.490Z,81.32
2023-03-06T05:34:27.958Z,81.36
2023-03-06T05:37:30.863Z,81.18
2023-03-06T05:40:33.540Z,80.92
2023-03-06T05:43:36.148Z,83.20
2023-03-06T05:46:38.592Z,83.51
2023-03-06T05:49:41.370Z,82.91
2023-03-06T05:52:43.874Z,83.35
2023-03-06T05:55:54.838Z,83.65
2023-03-06T05:58:57.281Z,84.49
2023-03-06T06:02:01.396Z,85.52
2023-03-06T06:05:04.337Z,85.66
2023-03-06T06:08:06.671Z,86.38
2023-03-06T06:11:10.123Z,86.82
2023-03-06T06:14:12.791Z,88.06
2023-03-06T06:17:16.680Z,87.12
2023-03-06T06:20:19.378Z,88.39
2023-03-06T06:23:22.132Z,88.48
2023-03-06T06:26:24.494Z,86.48
2023-03-06T06:29:27.911Z,87.88
2023-03-06T06:32:30.369Z,87.06
2023-03-06T06:35:35.390Z,88.81
2023-03-06T06:38:37.789Z,89.26
2023-03-06T06:41:55.243Z,90.87
2023-03-06T06:44:59.489Z,91.55
2023-03-06T06:48:02.132Z,92.02
2023-03-06T06:51:04.754Z,91.07
2023-03-06T06:54:08.310Z,91.85
2023-03-06T06:57:11.674Z,91.85
2023-03-06T07:00:14.862Z,90.25
2023-03-06T07:03:20.126Z,88.76
2023-03-06T07:06:22.827Z,89.58
2023-03-06T07:09:25.396Z,91.38
2023-03-06T07:12:28.556Z,90.09
2023-03-06T07:15:30.968Z,90.48
2023-03-06T07:18:33.617Z,90.14
2023-03-06T07:21:36.308Z,90.40
2023-03-06T07:24:39.011Z,90.70
2023-03-06T07:27:41.378Z,89.06
2023-03-06T07:30:44.160Z,88.87
2023-03-06T07:33:46.780Z,87.59
2023-03-06T07:36:50.857Z,85.55
2023-03-06T07:39:53.196Z,86.15
2023-03-06T07:43:06.108Z,85.05
2023-03-06T07:46:15.893Z,85.57
2023-03-06T07:49:18.567Z,85.96
2023-03-06T07:52:21.017Z,87.10
2023-03-06T07:55:23.914Z,88.49
2023-03-06T07:58:26.711Z,89.41
2023-03-06T08:01:29.509Z,90.34
2023-03-06T08:04:32.244Z,90.19
2023-03-06T08:07:34.507Z,87.43
2023-03-06T08:10:37.354Z,87.59
2023-03-06T08:13:40.056Z,86.87
2023-03-06T08:16:43.028Z,88.02
2023-03-06T08:19:45.442Z,89.92
2023-03-06T08:22:49.059Z,91.49
2023-03-06T08:25:55.357Z,91.36
2023-03-06T08:28:58.985Z,89.99
2023-03-06T08:32:01.352Z,89.03
2023-03-06T08:35:04.880Z,89.17
2023-03-06T08:38:07.158Z,88.21
2023-03-06T08:41:09.993Z,87.52
2023-03-06T08:44:12.597Z,89.30
2023-03-06T08:47:15.254Z,85.03
2023-03-06T08:50:18.975Z,82.28
2023-03-06T08:53:30.436Z,84.32
2023-03-06T08:56:39.417Z,84.41
2023-03-06T08:59:42.294Z,84.31
2023-03-06T09:02:45.003Z,86.68
2023-03-06T09:05:47.730Z,83.97
2023-03-06T09:08:54.049Z,81.47
2023-03-06T09:11:56.906Z,82.75
2023-03-06T09:14:59.336Z,85.13
2023-03-06T09:18:01.965Z,83.54
2023-03-06T09:21:07.483Z,79.92
2023-03-06T09:24:10.178Z,76.67
2023-03-06T09:27:12.512Z,72.29
2023-03-06T09:30:15.887Z,73.17
2023-03-06T09:33:18.319Z,70.56
2023-03-06T09:36:22.369Z,69.11
2023-03-06T09:39:25.877Z,67.49
2023-03-06T09:42:29.096Z,68.40
2023-03-06T09:45:35.146Z,67.59
2023-03-06T09:48:55.810Z,64.41
2023-03-06T09:52:02.244Z,62.20
2023-03-06T09:55:05.017Z,63.67
2023-03-06T09:58:14.656Z,63.25
2023-03-06T10:01:25.992Z,65.27
2023-03-06T10:04:37.158Z,65.84
2023-03-06T10:07:44.666Z,64.25
2023-03-06T10:11:07.658Z,60.30
2023-03-06T10:14:12.821Z,60.98
2023-03-06T10:17:20.791Z,62.46
2023-03-06T10:20:26.247Z,64.97
2023-03-06T10:23:37.473Z,63.60
2023-03-06T10:26:43.489Z,64.49
2023-03-06T10:30:02.730Z,62.65
2023-03-06T10:33:25.931Z,65.19
2023-03-06T10:36:29.737Z,64.83
2023-03-06T10:39:32.152Z,65.43
2023-03-06T10:42:34.801Z,66.51
2023-03-06T10:45:49.332Z,68.19
2023-03-06T10:48:57.904Z,70.67
2023-03-06T10:52:03.317Z,71.47
2023-03-06T10:55:23.997Z,72.29
2023-03-06T10:58:27.692Z,72.70
2023-03-06T11:01:30.645Z,74.19
2023-03-06T11:04:34.016Z,73.08
2023-03-06T11:07:36.928Z,71.97
2023-03-06T11:10:39.446Z,70.13
2023-03-06T11:13:44.088Z,68.74
2023-03-06T11:16:52.743Z,68.83
2023-03-06T11:20:14.040Z,70.59
2023-03-06T11:23:34.939Z,71.92
2023-03-06T11:26:51.294Z,69.73
2023-03-06T11:29:55.101Z,69.61
2023-03-06T11:33:00.864Z,70.50
2023-03-06T11:36:15.505Z,68.89
2023-03-06T11:39:33.188Z,70.02
2023-03-06T11:42:54.320Z,68.96
2023-03-06T11:46:00.315Z,67.96
2023-03-06T11:49:17.364Z,67.51
2023-03-06T11:52:23.887Z,67.27
2023-03-06T11:55:49.591Z,68.29
2023-03-06T11:59:02.268Z,67.69
2023-03-06T12:02:10.668Z,67.82
2023-03-06T12:05:31.916Z,67.76
2023-03-06T12:08:34.352Z,68.63
2023-03-06T12:11:48.530Z,67.65
2023-03-06T12:14:53.717Z,66.93
2023-03-06T12:17:59.250Z,68.10
2023-03-06T12:21:15.420Z,67.70
2023-03-06T12:24:18.041Z,67.54
2023-03-06T12:27:23.077Z,68.22
2023-03-06T12:30:31.916Z,69.04
2023-03-06T12:33:34.303Z,69.58
2023-03-06T12:36:36.862Z,69.93
2023-03-06T12:39:48.194Z,70.06
2023-03-06T12:42:56.993Z,72.50
2023-03-06T12:46:03.596Z,73.54
2023-03-06T12:49:26.317Z,72.53
2023-03-06T12:52:34.894Z,72.00
2023-03-06T12:55:40.728Z,73.03
2023-03-06T12:58:43.245Z,73.49
2023-03-06T13:01:48.732Z,74.02
2023-03-06T13:05:03.538Z,74.96
2023-03-06T13:08:25.218Z,75.75
2023-03-06T13:11:36.729Z,75.23
2023-03-06T13:14:42.378Z,74.76
2023-03-06T13:17:50.959Z,76.04
2023-03-06T13:20:56.180Z,77.15
2023-03-06T13:24:05.781Z,77.25
2023-03-06T13:27:10.098Z,77.91
2023-03-06T13:30:45.305Z,78.35
2023-03-06T13:33:52.138Z,78.36
2023-03-06T13:37:14.405Z,80.90
2023-03-06T13:40:25.433Z,80.42
2023-03-06T13:43:27.902Z,81.46
2023-03-06T13:46:30.970Z,79.70
2023-03-06T13:49:33.966Z,79.84
2023-03-06T13:52:47.631Z,79.02
2023-03-06T13:56:17.775Z,79.38
2023-03-06T13:59:39.228Z,78.64
2023-03-06T14:02:41.802Z,77.64
2023-03-06T14:05:45.959Z,77.50
2023-03-06T14:08:48.406Z,78.01
2023-03-06T14:11:57.551Z,77.28
2023-03-06T14:15:12.257Z,78.16
2023-03-06T14:18:14.810Z,77.76
2023-03-06T14:21:25.058Z,77.58
2023-03-06T14:24:36.932Z,78.83
2023-03-06T14:27:49.822Z,78.63
2023-03-06T14:30:53.212Z,79.92
2023-03-06T14:34:00.009Z,80.40
2023-03-06T14:37:05.556Z,80.95
2023-03-06T14:40:11.391Z,80.67
2023-03-06T14:43:20.541Z,82.53
2023-03-06T14:46:23.314Z,82.95
2023-03-06T14:49:26.890Z,83.12
2023-03-06T14:52:29.345Z,83.63
2023-03-06T14:55:33.537Z,81.77
2023-03-06T14:58:38.669Z,81.87
2023-03-06T15:01:42.364Z,83.05
2023-03-06T15:04:47.104Z,83.66
2023-03-06T15:07:50.790Z,83.10
2023-03-06T15:11:03.542Z,83.81
2023-03-06T15:14:06.204Z,82.80
2023-03-06T15:17:34.836Z,82.73
2023-03-06T15:20:54.560Z,82.82
2023-03-06T15:23:57.427Z,83.67
2023-03-06T15:27:01.625Z,83.61
2023-03-06T15:30:11.618Z,84.25
2023-03-06T15:33:20.388Z,84.84
2023-03-06T15:36:29.532Z,85.60
2023-03-06T15:39:33.853Z,86.54
2023-03-06T15:42:36.627Z,86.89
2023-03-06T15:45:39.495Z,87.89
2023-03-06T15:48:51.836Z,88.04
2023-03-06T15:51:54.581Z,87.80
2023-03-06T15:54:56.931Z,89.25
2023-03-06T15:58:02.114Z,89.72
2023-03-06T16:01:04.606Z,89.80
2023-03-06T16:04:07.302Z,89.84
2023-03-06T16:07:09.720Z,90.57
2023-03-06T16:10:16.376Z,90.73
2023-03-06T16:13:25.724Z,92.45
2023-03-06T16:16:36.004Z,92.22
2023-03-06T16:19:39.282Z,92.95
2023-03-06T16:22:41.929Z,93.95
2023-03-06T16:25:48.489Z,94.05
2023-03-06T16:28:51.412Z,94.46
2023-03-06T16:31:55.197Z,94.82
2023-03-06T16:35:00.308Z,95.58
2023-03-06T16:38:02.657Z,95.64
2023-03-06T16:41:05.410Z,95.24
2023-03-06T16:44:07.864Z,95.27
2023-03-06T16:47:11.805Z,95.45
2023-03-06T16:50:20.078Z,95.76
2023-03-06T16:53:22.651Z,95.43
2023-03-06T16:56:25.116Z,95.83
2023-03-06T16:59:27.838Z,95.47
2023-03-06T17:02:30.241Z,96.10
2023-03-06T17:05:35.596Z,96.33
2023-03-06T17:08:37.956Z,96.45
2023-03-06T17:11:43.386Z,96.65
2023-03-06T17:14:45.850Z,97.86
2023-03-06T17:17:48.756Z,98.41
2023-03-06T17:20:51.874Z,98.93
2023-03-06T17:23:54.516Z,99.48
2023-03-06T17:26:56.944Z,100.00
2023-03-06T17:30:00.018Z,99.66
2023-03-06T17:33:02.927Z,99.77
2023-03-06T17:36:05.725Z,100.00
2023-03-06T17:39:08.100Z,99.43
2023-03-06T17:42:10.895Z,99.56
2023-03-06T17:45:13.856Z,99.43
2023-03-06T17:48:16.554Z,100.00
2023-03-06T17:51:19.023Z,100.00
2023-03-06T17:54:22.166Z,100.00
2023-03-06T17:57:24.610Z,100.00
2023-03-06T18:00:27.316Z,100.00
2023-03-06T18:03:30.108Z,99.47
2023-03-06T18:06:33.570Z,99.93
2023-03-06T18:09:37.376Z,99.89
2023-03-06T18:12:40.092Z,100.00
2023-03-06T18:15:43.012Z,100.00
2023-03-06T18:18:45.740Z,99.61
2023-03-06T18:21:48.326Z,99.76
2023-03-06T18:24:51.044Z,100.00
2023-03-06T18:27:53.726Z,100.00
2023-03-06T18:30:56.134Z,99.78
2023-03-06T18:33:59.753Z,99.08
2023-03-06T18:37:02.240Z,99.71
2023-03-06T18:40:05.202Z,100.00
2023-03-06T18:43:07.913Z,100.00
2023-03-06T18:46:11.030Z,100.00
2023-03-06T18:49:14.530Z,100.00
2023-03-06T18:52:17.194Z,100.00
2023-03-06T18:55:21.997Z,100.00
2023-03-06T18:58:24.727Z,100.00
2023-03-06T19:01:30.662Z,100.00
2023-03-06T19:04:33.682Z,100.00
2023-03-06T19:07:36.165Z,100.00
2023-03-06T19:10:39.840Z,100.00
2023-03-06T19:13:42.837Z,100.00
2023-03-06T19:16:46.270Z,100.00
2023-03-06T19:19:49.412Z,100.00
2023-03-06T19:22:53.204Z,100.00
2023-03-06T19:25:56.799Z,100.00
2023-03-06T19:28:59.517Z,100.00
2023-03-06T19:32:02.547Z,100.00
2023-03-06T19:35:05.946Z,100.00
2023-03-06T19:38:10.034Z,100.00
2023-03-06T19:41:13.847Z,100.00
2023-03-06T19:44:16.447Z,100.00
2023-03-06T19:47:19.221Z,100.00
2023-03-06T19:50:22.004Z,100.00
2023-03-06T19:53:24.786Z,100.00
2023-03-06T19:56:28.933Z,100.00
2023-03-06T19:59:32.295Z,100.00
2023-03-06T20:02:35.682Z,100.00
2023-03-06T20:05:45.031Z,100.00
2023-03-06T20:08:47.904Z,100.00
2023-03-06T20:11:50.744Z,100.00
2023-03-06T20:14:53.092Z,100.00
2023-03-06T20:17:56.800Z,100.00
2023-03-06T20:21:04.300Z,100.00
2023-03-06T20:24:07.880Z,100.00
2023-03-06T20:27:10.329Z,100.00
2023-03-06T20:30:13.461Z,100.00
2023-03-06T20:33:16.785Z,100.00
2023-03-06T20:36:19.383Z,100.00
2023-03-06T20:39:22.243Z,100.00
2023-03-06T20:42:24.798Z,100.00
2023-03-06T20:45:27.096Z,100.00
2023-03-06T20:48:29.783Z,100.00
2023-03-06T20:51:33.905Z,100.00
2023-03-06T20:54:36.741Z,100.00
2023-03-06T20:57:39.142Z,100.00
2023-03-06T21:00:41.974Z,100.00
2023-03-06T21:03:44.560Z,100.00
2023-03-06T21:06:47.720Z,100.00
2023-03-06T21:09:51.757Z,100.00
2023-03-06T21:12:54.608Z,100.00
2023-03-06T21:15:59.931Z,100.00
2023-03-06T21:19:02.865Z,100.00
2023-03-06T21:22:05.311Z,100.00
2023-03-06T21:25:08.070Z,100.00
2023-03-06T21:28:10.436Z,100.00
2023-03-06T21:31:14.269Z,100.00
2023-03-06T21:34:17.016Z,100.00
2023-03-06T21:37:19.622Z,100.00
2023-03-06T21:40:22.051Z,100.00
2023-03-06T21:43:24.709Z,100.00
2023-03-06T21:46:27.491Z,100.00
2023-03-06T21:49:30.594Z,100.00
2023-03-06T21:52:32.958Z,100.00
2023-03-06T21:55:38.342Z,100.00
2023-03-06T21:58:41.204Z,100.00
2023-03-06T22:01:44.137Z,100.00
2023-03-06T22:04:53.345Z,100.00
2023-03-06T22:07:55.695Z,100.00
2023-03-06T22:10:58.410Z,100.00
2023-03-06T22:14:00.817Z,100.00
2023-03-06T22:17:03.498Z,100.00
2023-03-06T22:20:06.654Z,100.00
2023-03-06T22:23:09.438Z,100.00
2023-03-06T22:26:13.661Z,100.00
2023-03-06T22:29:16.685Z,100.00
2023-03-06T22:32:19.223Z,100.00
2023-03-06T22:35:21.926Z,100.00
2023-03-06T22:38:24.333Z,100.00
2023-03-06T22:41:27.272Z,100.00
2023-03-06T22:44:29.954Z,100.00
2023-03-06T22:47:35.398Z,100.00
2023-03-06T22:50:37.731Z,100.00
2023-03-06T22:53:40.518Z,100.00
2023-03-06T22:56:42.800Z,100.00
2023-03-06T22:59:45.464Z,100.00
2023-03-06T23:02:48.049Z,100.00
2023-03-06T23:05:51.004Z,100.00
2023-03-06T23:08:56.765Z,100.00
2023-03-06T23:11:58.894Z,100.00
2023-03-06T23:15:20.324Z,100.00
2023-03-06T23:18:41.792Z,100.00
2023-03-06T23:22:02.960Z,100.00
2023-03-06T23:25:24.340Z,100.00
2023-03-06T23:28:27.614Z,100.00
2023-03-06T23:31:30.428Z,100.00
2023-03-06T23:34:33.252Z,100.00
2023-03-06T23:37:35.546Z,100.00
2023-03-06T23:40:38.658Z,100.00
2023-03-06T23:43:41.230Z,100.00
2023-03-06T23:46:43.900Z,100.00
2023-03-06T23:49:46.305Z,100.00
2023-03-06T23:52:51.385Z,100.00
2023-03-06T23:55:54.380Z,100.00
2023-03-06T23:58:57.074Z,100.00
